Aérodrome :
LOGIN :

S'inscrire | Disclaimer

   EN    FR    IT 

 










Légende :    VFR   VFR Marginal   IFR   IFR Intensif   IFR Très Intensif
Visi : 
Plafond : 
>= 8 km
>= 3000ft
5 à 8 km
1000 à 3000 ft
1500m à 5 km
500 à 1000 ft
800 à 1500m
200 à 500 ft
< 800m
< 200 ft
Symboles :   Orages  Brouillard  Fortes neiges  Fortes précipitations  Vent > 20 kt
SIGMETs :   Divers  Orages  Givrage  Turbulence  Onde Orograph.  Cendres Volcan.






- Altitude de l'aérodrome : 12 ft
- Code IATA : BCN


LEBL - Barcelone

DERNIER METAR :
  • 161100Z 06011KT 040V100 9999 R25R///// FEW020 15/01 Q1017 NOSIG

METARs EXPIRÉS :
  • 161030Z 07010KT 040V100 9999 FEW020 15/01 Q1017 NOSIG
  • 161000Z 07010KT 040V100 9999 FEW020 14/M01 Q1017 NOSIG
  • 160930Z 08009KT 040V110 CAVOK 14/01 Q1017 NOSIG
  • 160900Z 07009KT CAVOK 13/00 Q1017 NOSIG
  • 160830Z 05008KT 020V080 CAVOK 13/02 Q1017 NOSIG

TAF TAF LEBL
Valide du 16 à 12h jusqu'au 17 à 12h UTC


161100Z 1612/1712 07012KT 9999 FEW020 TX15/1612Z TN07/1706Z
PROB40
TEMPO 1612/1615 07015G25KT
PROB40
TEMPO 1617/1621 RA FEW040TCU
BECMG 1618/1620 33009KT
BECMG 1709/1711 19010KT



MET'MAP, la Météo Aéronautique d'un coup d'oeil ! - Copyright ORBIFLY Décembre 2007 - Disclaimer

ORBIFLY MET'MAP TEAM :

Programmation & Développement : Alexandra Zaïnal
Sur une idée originale de : Baudouin d'Aumeries
Assistance à la programmation : Marc-Olivier Méhu
Soutien technique & logistique : Manuel Goepfert

Contact : metmap@orbifly.com




SOURCES & CREDITS :

   NOAA